Titonka, IA

1:42 AM CDT on June 30, 2015 (GMT -0500)
KIATHOMP4 | | Change Station
CLOSE
Current Station
Personal Weather Station
Location: Thompson, IA
Elevation: 1210 ft
Nearby Weather Stations

Elev 1210 ft 43.35 °N, 93.81 °W | Updated 3 seconds ago

Clear
Clear
64.9 °F
Feels Like 64.9 °F
N
0.7
Wind Variable Wind from NW
Gusts 1.6 mph

Today
High -- | Low -- °F
--% Chance of Precip.
Yesterday
High -- | Low -- °F
Precip. -- in
5:39 AM 9:00 PM
Waxing Gibbous, 96% visible
Pressure 29.88 in
Visibility 9.0 miles
Clouds Few 5500 ft
Dew Point 64 °F
Humidity 96%
Rainfall in
Snow Depth Not available.
UV 0 out of 12
Pollen 4.70 out of 12
Air Quality Not available.
Flu Activity No Activity
METAR KAXA 300615Z AUTO 31007KT 9SM FEW055 20/17 A2988 RMK AO2

More Conditions Fewer Conditions

Pressure 29.88 in
Visibility 9.0 miles
Clouds Few 5500 ft
Dew Point 64 °F
Humidity 96%
Rainfall in
Snow Depth Not available.
UV 0 out of 12
Pollen 4.70 out of 12
Air Quality Not available.
Flu Activity No Activity
METAR KAXA 300615Z AUTO 31007KT 9SM FEW055 20/17 A2988 RMK AO2

More Conditions Fewer Conditions

10-Day Weather Forecast

×

Almanac

Astronomy

Jun. 30, 2015 Rise Set
Actual Time
Civil Twilight
Nautical Twilight
Astronomical Twilight
Moon
Length of Visible Light
Length of Day
Tomorrow will be .
, % of the Moon is Illuminated

Today's Extremes

State Highs State Lows

Community

WunderPhotos

Upload Photos

1,833,971 photos uploaded!

WunderBlogs® & News

Nearby

Air Quality

  Air Quality AQ Index Pollutant
Not available.

Snow Depth

Station Depth Elevation

Earthquake Activity

City Distance Mag. Time & Date
Minimum magnitude displayed is 2.5.

Coastal Water Temperatures

Place Temperature

Stations

Nearby Weather Stations

Station Location Temp. Windchill Dew Point Humidity Wind Precip. Elev Updated Type